Time;durP1;ratioP1;P1;durP2;ratioP2;P2;SDS_P1;SDS_P2;PMS_P1;PMS_P2;Temp;Humidity;BMP_temperature;BMP_pressure;BME280_temperature;BME280_humidity;BME280_pressure;Samples;Min_cycle;Max_cycle;Signal;HPM_P1;HPM_P2
2023/01/02 00:02:23;;;;;;;4.80;2.93;;;;;;;;;;5021139;28;20705;-75
2023/01/02 00:04:49;;;;;;;4.97;2.87;;;;;;;;;;5021464;28;20186;-76
2023/01/02 00:07:16;;;;;;;7.77;3.30;;;;;;;;;;5020306;28;20179;-75
2023/01/02 00:09:42;;;;;;;6.33;3.33;;;;;;;;;;5017966;28;20270;-74
2023/01/02 00:12:08;;;;;;;5.50;2.90;;;;;;;;;;5017797;28;20210;-75
2023/01/02 00:14:34;;;;;;;5.43;3.10;;;;;;;;;;5020710;28;20185;-74
2023/01/02 00:17:01;;;;;;;8.53;4.30;;;;;;;;;;5014132;28;20183;-74
2023/01/02 00:19:27;;;;;;;10.87;4.80;;;;;;;;;;5020437;28;20181;-74
2023/01/02 00:21:53;;;;;;;10.47;5.03;;;;;;;;;;5016045;28;20943;-74
2023/01/02 00:24:19;;;;;;;8.60;4.10;;;;;;;;;;5002898;28;20193;-74
2023/01/02 00:26:45;;;;;;;12.73;5.70;;;;;;;;;;5019994;28;20178;-74
2023/01/02 00:29:12;;;;;;;22.03;8.60;;;;;;;;;;5003736;28;20182;-74
2023/01/02 00:31:39;;;;;;;25.13;9.73;;;;;;;;;;5017113;28;20229;-74
2023/01/02 00:34:24;;;;;;;30.43;11.77;;;;;;;;;;5024402;28;20552;-75
2023/01/02 00:36:50;;;;;;;35.87;13.50;;;;;;;;;;5021672;28;20232;-74
2023/01/02 00:39:16;;;;;;;30.07;13.40;;;;;;;;;;5017706;28;20193;-75
2023/01/02 00:41:43;;;;;;;46.63;19.57;;;;;;;;;;5021034;28;20205;-74
2023/01/02 00:44:09;;;;;;;21.03;10.40;;;;;;;;;;5019902;28;20195;-75
2023/01/02 00:46:35;;;;;;;56.23;25.17;;;;;;;;;;5014599;28;20265;-74
2023/01/02 00:49:01;;;;;;;43.83;18.67;;;;;;;;;;5020186;28;20251;-74
2023/01/02 00:51:27;;;;;;;36.80;16.83;;;;;;;;;;5024429;28;20242;-75
2023/01/02 00:53:53;;;;;;;26.53;12.93;;;;;;;;;;5019842;28;20183;-74
2023/01/02 00:56:20;;;;;;;26.33;11.23;;;;;;;;;;5021663;28;20277;-74
2023/01/02 00:58:46;;;;;;;33.40;16.13;;;;;;;;;;5021945;28;20256;-75
2023/01/02 01:01:13;;;;;;;21.80;10.07;;;;;;;;;;5018415;28;20237;-75
2023/01/02 01:03:42;;;;;;;26.20;11.80;;;;;;;;;;5022414;28;20698;-74
2023/01/02 01:06:09;;;;;;;20.63;9.13;;;;;;;;;;5019506;28;20178;-74
2023/01/02 01:08:36;;;;;;;12.77;6.23;;;;;;;;;;5020033;28;20768;-75
2023/01/02 01:11:09;;;;;;;11.17;5.43;;;;;;;;;;5018015;28;20217;-74
2023/01/02 01:13:35;;;;;;;13.97;6.67;;;;;;;;;;5023073;28;20642;-75
2023/01/02 01:16:05;;;;;;;21.40;10.17;;;;;;;;;;5015973;28;20593;-74
2023/01/02 01:18:32;;;;;;;14.60;5.47;;;;;;;;;;5001720;28;20194;-74
2023/01/02 01:20:58;;;;;;;14.27;6.67;;;;;;;;;;5014016;28;20218;-74
2023/01/02 01:23:24;;;;;;;17.90;8.60;;;;;;;;;;5020553;28;20576;-74
2023/01/02 01:25:50;;;;;;;11.23;5.30;;;;;;;;;;5020537;28;20198;-74
2023/01/02 01:28:16;;;;;;;20.97;9.33;;;;;;;;;;5025504;28;20564;-74
2023/01/02 01:30:42;;;;;;;16.97;8.07;;;;;;;;;;5018010;28;20221;-75
2023/01/02 01:33:08;;;;;;;21.80;10.50;;;;;;;;;;5019678;28;20214;-73
2023/01/02 01:35:35;;;;;;;11.73;5.50;;;;;;;;;;5020903;28;20182;-74
2023/01/02 01:38:01;;;;;;;10.27;5.43;;;;;;;;;;5020931;28;20685;-74
2023/01/02 01:40:27;;;;;;;27.93;12.40;;;;;;;;;;5021020;28;20198;-74
2023/01/02 01:42:53;;;;;;;19.27;9.40;;;;;;;;;;5023010;28;20661;-75
2023/01/02 01:45:19;;;;;;;20.33;9.63;;;;;;;;;;5014662;28;20282;-75
2023/01/02 01:47:57;;;;;;;14.73;7.47;;;;;;;;;;5014361;28;20296;-75
2023/01/02 01:50:34;;;;;;;25.67;10.50;;;;;;;;;;5015322;28;20246;-74
2023/01/02 01:53:02;;;;;;;14.47;6.40;;;;;;;;;;5015686;28;20206;-75
2023/01/02 01:55:31;;;;;;;9.63;4.73;;;;;;;;;;5042015;28;20182;-75
2023/01/02 01:57:58;;;;;;;7.03;3.30;;;;;;;;;;5014676;28;20179;-74
2023/01/02 02:00:24;;;;;;;10.50;4.40;;;;;;;;;;5011451;28;20588;-75
2023/01/02 02:02:53;;;;;;;13.47;7.47;;;;;;;;;;5014752;28;20602;-75
2023/01/02 02:05:21;;;;;;;19.47;10.43;;;;;;;;;;5019510;28;20191;-74
2023/01/02 02:07:52;;;;;;;11.70;6.53;;;;;;;;;;5022969;28;20194;-74
2023/01/02 02:10:19;;;;;;;9.63;4.70;;;;;;;;;;5019937;28;20202;-75
2023/01/02 02:12:45;;;;;;;14.10;6.17;;;;;;;;;;5022642;28;20207;-75
2023/01/02 02:15:13;;;;;;;8.43;3.63;;;;;;;;;;5023916;28;20195;-74
2023/01/02 02:17:47;;;;;;;8.07;3.47;;;;;;;;;;5023615;28;20553;-74
2023/01/02 02:20:25;;;;;;;6.23;2.80;;;;;;;;;;5020504;28;20258;-74
2023/01/02 02:23:17;;;;;;;11.97;7.30;;;;;;;;;;5036374;28;20195;-75
2023/01/02 02:26:12;;;;;;;8.50;4.40;;;;;;;;;;5019553;28;20182;-75
2023/01/02 02:28:45;;;;;;;8.73;4.70;;;;;;;;;;5009670;28;20204;-74
2023/01/02 02:31:26;;;;;;;9.63;5.27;;;;;;;;;;5019746;28;20330;-75
2023/01/02 02:33:58;;;;;;;26.53;11.40;;;;;;;;;;5021904;28;20178;-74
2023/01/02 02:36:33;;;;;;;10.03;4.10;;;;;;;;;;5017258;28;20514;-74
2023/01/02 02:39:19;;;;;;;12.73;6.13;;;;;;;;;;5024596;28;20240;-75
2023/01/02 02:41:56;;;;;;;13.60;6.37;;;;;;;;;;5033399;28;20210;-74
2023/01/02 02:44:22;;;;;;;11.97;4.90;;;;;;;;;;5025519;28;20233;-74
2023/01/02 02:47:06;;;;;;;7.13;3.60;;;;;;;;;;5050265;28;20221;-74
2023/01/02 02:49:56;;;;;;;8.83;3.13;;;;;;;;;;5024348;28;20280;-74
2023/01/02 02:52:44;;;;;;;5.13;2.90;;;;;;;;;;5023794;28;20213;-74
2023/01/02 02:55:14;;;;;;;6.13;3.10;;;;;;;;;;5023707;28;20255;-74
2023/01/02 02:57:42;;;;;;;5.20;2.80;;;;;;;;;;5019953;28;20668;-75
2023/01/02 03:00:11;;;;;;;4.97;2.93;;;;;;;;;;5032021;28;20175;-76
2023/01/02 03:02:37;;;;;;;19.03;7.17;;;;;;;;;;5021160;28;20194;-74
2023/01/02 03:05:05;;;;;;;11.90;5.10;;;;;;;;;;5016069;28;20262;-75
2023/01/02 03:07:36;;;;;;;7.87;2.97;;;;;;;;;;5022122;28;20191;-74
2023/01/02 03:10:15;;;;;;;6.67;2.83;;;;;;;;;;5020985;28;20182;-75
2023/01/02 03:12:47;;;;;;;9.73;3.60;;;;;;;;;;5021549;28;20214;-75
2023/01/02 03:15:32;;;;;;;12.17;4.47;;;;;;;;;;5015651;28;20198;-74
2023/01/02 03:18:09;;;;;;;9.00;3.73;;;;;;;;;;5019213;28;20208;-74
2023/01/02 03:20:41;;;;;;;13.07;5.00;;;;;;;;;;5024272;28;20210;-75
2023/01/02 03:23:10;;;;;;;5.60;3.23;;;;;;;;;;5019933;28;20191;-74
2023/01/02 03:25:37;;;;;;;7.27;3.00;;;;;;;;;;5015822;28;20253;-74
2023/01/02 03:28:08;;;;;;;4.70;2.90;;;;;;;;;;5018940;28;20171;-75
2023/01/02 03:30:36;;;;;;;8.83;2.93;;;;;;;;;;5017707;28;20226;-75
2023/01/02 03:33:23;;;;;;;9.20;4.30;;;;;;;;;;5020823;28;20242;-75
2023/01/02 03:35:52;;;;;;;7.53;4.07;;;;;;;;;;5016978;28;20190;-74
2023/01/02 03:38:25;;;;;;;6.37;2.77;;;;;;;;;;5018491;28;20191;-74
2023/01/02 03:40:56;;;;;;;4.77;2.70;;;;;;;;;;5023809;28;20209;-74
2023/01/02 03:43:24;;;;;;;4.47;2.80;;;;;;;;;;5023347;28;20196;-74
2023/01/02 03:45:53;;;;;;;4.53;2.50;;;;;;;;;;5021188;28;20190;-75
2023/01/02 03:48:26;;;;;;;6.20;2.40;;;;;;;;;;5025051;28;20186;-74
2023/01/02 03:50:54;;;;;;;5.97;3.10;;;;;;;;;;5021193;28;20206;-75
2023/01/02 03:53:20;;;;;;;6.47;3.70;;;;;;;;;;5024248;28;20240;-75
2023/01/02 03:55:59;;;;;;;5.10;2.67;;;;;;;;;;5021762;28;20269;-75
2023/01/02 03:58:31;;;;;;;7.67;3.30;;;;;;;;;;5019723;28;20652;-74
2023/01/02 04:01:08;;;;;;;6.77;3.13;;;;;;;;;;5024910;28;20268;-74
2023/01/02 04:03:35;;;;;;;7.30;3.20;;;;;;;;;;5020976;28;20649;-75
2023/01/02 04:06:08;;;;;;;5.90;2.80;;;;;;;;;;5023732;28;20188;-75
2023/01/02 04:08:41;;;;;;;6.73;2.70;;;;;;;;;;5023617;28;20829;-74
2023/01/02 04:11:08;;;;;;;8.23;3.30;;;;;;;;;;5022864;28;20200;-75
2023/01/02 04:13:37;;;;;;;9.20;5.37;;;;;;;;;;5006082;28;20214;-74
2023/01/02 04:16:04;;;;;;;5.30;3.00;;;;;;;;;;5023990;28;20261;-75
2023/01/02 04:18:36;;;;;;;6.17;2.70;;;;;;;;;;5026458;28;20182;-74
2023/01/02 04:21:07;;;;;;;7.03;2.70;;;;;;;;;;5016928;28;20204;-75
2023/01/02 04:23:53;;;;;;;6.30;2.50;;;;;;;;;;5020003;28;20220;-74
2023/01/02 04:26:31;;;;;;;5.20;2.57;;;;;;;;;;5022236;28;20239;-74
2023/01/02 04:28:58;;;;;;;4.70;3.00;;;;;;;;;;5020769;28;20190;-75
2023/01/02 04:31:24;;;;;;;5.20;2.57;;;;;;;;;;5022577;28;20223;-75
2023/01/02 04:34:01;;;;;;;4.80;2.40;;;;;;;;;;5025073;28;20183;-74
2023/01/02 04:36:27;;;;;;;3.93;2.50;;;;;;;;;;5023010;28;20736;-74
2023/01/02 04:38:53;;;;;;;4.67;2.60;;;;;;;;;;5024013;28;20176;-74
2023/01/02 04:41:25;;;;;;;5.80;2.90;;;;;;;;;;5022009;28;20214;-74
2023/01/02 04:43:58;;;;;;;5.97;2.57;;;;;;;;;;5051741;28;20182;-74
2023/01/02 04:46:25;;;;;;;4.20;2.73;;;;;;;;;;5025674;28;20788;-75
2023/01/02 04:48:52;;;;;;;9.63;4.60;;;;;;;;;;5022752;28;20178;-74
2023/01/02 04:51:19;;;;;;;5.10;3.23;;;;;;;;;;5023166;28;20254;-74
2023/01/02 04:53:48;;;;;;;6.17;3.10;;;;;;;;;;5023330;28;20205;-75
2023/01/02 04:56:14;;;;;;;7.40;3.00;;;;;;;;;;5025122;28;20189;-75
2023/01/02 04:58:41;;;;;;;6.67;3.47;;;;;;;;;;5024325;28;20573;-74
2023/01/02 05:01:09;;;;;;;4.83;3.20;;;;;;;;;;5034278;28;20222;-74
2023/01/02 05:03:38;;;;;;;6.83;4.00;;;;;;;;;;5026117;28;20178;-75
2023/01/02 05:06:04;;;;;;;7.90;3.50;;;;;;;;;;5022590;28;20548;-74
2023/01/02 05:08:30;;;;;;;10.80;5.93;;;;;;;;;;5023375;28;20580;-74
2023/01/02 05:10:57;;;;;;;9.57;4.60;;;;;;;;;;5023324;28;20683;-75
2023/01/02 05:13:23;;;;;;;8.77;3.60;;;;;;;;;;5020456;28;20339;-75
2023/01/02 05:15:55;;;;;;;6.53;2.70;;;;;;;;;;5022042;28;20183;-74
2023/01/02 05:18:22;;;;;;;7.07;2.97;;;;;;;;;;5024514;28;20183;-74
2023/01/02 05:20:48;;;;;;;7.60;3.20;;;;;;;;;;5020368;28;20208;-74
2023/01/02 05:25:59;;;;;;;9.30;4.43;;;;;;;;;;5020819;28;20268;-74
2023/01/02 05:28:25;;;;;;;10.77;6.10;;;;;;;;;;5023460;28;20273;-74
2023/01/02 05:30:51;;;;;;;16.50;9.37;;;;;;;;;;5025215;28;20300;-75
2023/01/02 05:33:18;;;;;;;12.43;5.37;;;;;;;;;;5021349;28;20222;-74
2023/01/02 05:35:44;;;;;;;6.57;3.53;;;;;;;;;;5012734;28;20186;-74
2023/01/02 05:38:10;;;;;;;7.70;3.07;;;;;;;;;;5017135;28;20216;-74
2023/01/02 05:40:36;;;;;;;5.43;3.13;;;;;;;;;;5020705;28;20191;-75
2023/01/02 05:43:02;;;;;;;4.20;2.50;;;;;;;;;;5049200;28;20244;-74
2023/01/02 05:45:28;;;;;;;8.57;4.07;;;;;;;;;;5022296;28;20430;-74
2023/01/02 05:47:54;;;;;;;5.93;3.07;;;;;;;;;;5024147;28;20650;-74
2023/01/02 05:50:21;;;;;;;7.97;2.80;;;;;;;;;;5015731;28;20262;-74
2023/01/02 05:52:47;;;;;;;5.57;2.70;;;;;;;;;;5009997;28;21060;-74
2023/01/02 05:55:13;;;;;;;4.60;2.40;;;;;;;;;;5016987;28;20192;-74
2023/01/02 05:57:41;;;;;;;3.63;2.53;;;;;;;;;;5019679;28;20597;-75
2023/01/02 06:00:07;;;;;;;5.03;3.00;;;;;;;;;;5014444;28;20190;-75
2023/01/02 06:02:39;;;;;;;11.10;5.20;;;;;;;;;;5015632;28;20278;-74
2023/01/02 06:05:05;;;;;;;10.37;4.43;;;;;;;;;;5021948;28;20201;-75
2023/01/02 06:07:31;;;;;;;10.27;5.40;;;;;;;;;;5014400;28;20237;-74
2023/01/02 06:09:57;;;;;;;7.23;3.60;;;;;;;;;;5014385;28;20196;-75
2023/01/02 06:12:23;;;;;;;6.37;3.40;;;;;;;;;;5019100;28;20211;-74
2023/01/02 06:14:50;;;;;;;5.83;3.03;;;;;;;;;;5025553;28;20186;-74
2023/01/02 06:17:16;;;;;;;7.37;2.60;;;;;;;;;;5025645;28;20190;-75
2023/01/02 06:19:42;;;;;;;4.83;2.57;;;;;;;;;;5020696;28;20187;-74
2023/01/02 06:22:08;;;;;;;3.67;2.63;;;;;;;;;;5028304;28;20210;-74
2023/01/02 06:24:34;;;;;;;7.63;2.67;;;;;;;;;;5025389;28;20207;-74
2023/01/02 06:27:00;;;;;;;6.83;2.60;;;;;;;;;;5025712;28;20186;-74
2023/01/02 06:29:28;;;;;;;4.37;2.47;;;;;;;;;;5025369;28;20236;-74
2023/01/02 06:31:54;;;;;;;5.23;2.63;;;;;;;;;;5025517;28;20206;-74
2023/01/02 06:34:20;;;;;;;7.53;2.50;;;;;;;;;;5021399;28;20663;-74
2023/01/02 06:36:47;;;;;;;4.00;2.13;;;;;;;;;;5017706;28;20194;-74
2023/01/02 06:39:13;;;;;;;5.17;2.40;;;;;;;;;;5022162;28;20171;-76
2023/01/02 06:41:39;;;;;;;4.80;2.63;;;;;;;;;;5020155;28;20207;-76
2023/01/02 06:44:05;;;;;;;5.38;2.50;;;;;;;;;;5019334;28;20421;-79
2023/01/02 06:46:31;;;;;;;7.73;2.63;;;;;;;;;;5024102;28;20198;-80
2023/01/02 06:48:57;;;;;;;7.13;2.40;;;;;;;;;;5024548;28;20176;-77
2023/01/02 06:51:23;;;;;;;6.85;2.65;;;;;;;;;;5022133;28;20468;-76
2023/01/02 06:53:50;;;;;;;5.43;2.63;;;;;;;;;;5016819;28;20528;-75
2023/01/02 06:56:17;;;;;;;6.23;2.60;;;;;;;;;;5019309;28;20892;-74
2023/01/02 06:58:43;;;;;;;6.20;2.30;;;;;;;;;;5022592;28;20182;-75
2023/01/02 07:01:11;;;;;;;6.10;2.70;;;;;;;;;;5025030;28;20433;-74
2023/01/02 07:03:37;;;;;;;4.83;2.50;;;;;;;;;;5024283;28;20186;-75
2023/01/02 07:06:08;;;;;;;6.18;2.83;;;;;;;;;;5023244;28;20441;-75
2023/01/02 07:08:34;;;;;;;4.93;2.50;;;;;;;;;;5025177;28;20182;-75
2023/01/02 07:11:14;;;;;;;7.23;2.40;;;;;;;;;;5025577;28;20739;-75
2023/01/02 07:13:42;;;;;;;9.00;2.57;;;;;;;;;;5028237;28;20206;-74
2023/01/02 07:16:09;;;;;;;15.53;2.70;;;;;;;;;;5027157;28;20760;-75
2023/01/02 07:18:36;;;;;;;5.67;2.50;;;;;;;;;;5025546;28;20182;-74
2023/01/02 07:21:02;;;;;;;3.20;2.40;;;;;;;;;;5022649;28;20194;-75
2023/01/02 07:23:28;;;;;;;6.93;2.70;;;;;;;;;;5020847;28;20194;-74
2023/01/02 07:25:55;;;;;;;8.70;3.10;;;;;;;;;;5025084;28;20181;-75
2023/01/02 07:28:22;;;;;;;10.07;4.80;;;;;;;;;;5023941;28;20180;-76
2023/01/02 07:30:48;;;;;;;9.33;3.40;;;;;;;;;;5024718;28;20217;-75
2023/01/02 07:33:14;;;;;;;6.53;2.87;;;;;;;;;;5027088;28;20218;-75
2023/01/02 07:35:40;;;;;;;6.67;2.93;;;;;;;;;;5026157;28;20781;-75
2023/01/02 07:38:07;;;;;;;12.00;2.47;;;;;;;;;;5025000;28;20190;-75
2023/01/02 07:40:33;;;;;;;5.67;2.40;;;;;;;;;;5021537;28;20194;-75
2023/01/02 07:42:59;;;;;;;6.87;3.00;;;;;;;;;;5025526;28;20183;-76
2023/01/02 07:45:25;;;;;;;6.50;2.67;;;;;;;;;;5028133;28;21003;-75
2023/01/02 07:47:51;;;;;;;7.37;2.80;;;;;;;;;;5026829;28;20191;-75
2023/01/02 07:50:17;;;;;;;7.70;2.37;;;;;;;;;;5025876;28;20286;-75
2023/01/02 07:52:44;;;;;;;6.07;2.67;;;;;;;;;;5027026;28;20260;-75
2023/01/02 07:55:10;;;;;;;3.70;2.10;;;;;;;;;;5027002;28;20209;-78
2023/01/02 07:57:36;;;;;;;6.30;2.50;;;;;;;;;;5026875;28;20181;-77
2023/01/02 08:00:04;;;;;;;8.10;2.57;;;;;;;;;;5027540;28;20171;-76
2023/01/02 08:02:38;;;;;;;7.03;2.70;;;;;;;;;;5023370;28;20300;-77
2023/01/02 08:05:04;;;;;;;5.83;2.40;;;;;;;;;;5025868;28;20286;-77
2023/01/02 08:07:31;;;;;;;7.17;2.50;;;;;;;;;;5023808;28;20194;-77
2023/01/02 08:09:57;;;;;;;6.67;2.47;;;;;;;;;;5024385;28;20179;-78
2023/01/02 08:12:23;;;;;;;9.43;2.40;;;;;;;;;;5023807;28;20199;-77
2023/01/02 08:14:49;;;;;;;7.43;2.50;;;;;;;;;;5022620;28;20193;-77
2023/01/02 08:17:17;;;;;;;7.77;2.40;;;;;;;;;;5024332;28;20187;-75
2023/01/02 08:19:43;;;;;;;5.43;2.13;;;;;;;;;;5026992;28;20171;-75
2023/01/02 08:22:09;;;;;;;9.57;2.87;;;;;;;;;;5021088;28;20234;-75
2023/01/02 08:24:35;;;;;;;11.07;2.53;;;;;;;;;;5021191;28;20198;-75
2023/01/02 08:27:02;;;;;;;9.60;2.60;;;;;;;;;;5022877;28;20596;-76
2023/01/02 08:29:28;;;;;;;5.97;2.60;;;;;;;;;;5025221;28;20327;-76
2023/01/02 08:31:54;;;;;;;12.53;2.77;;;;;;;;;;5024029;28;20548;-76
2023/01/02 08:34:20;;;;;;;9.20;2.90;;;;;;;;;;5025947;28;20186;-76
2023/01/02 08:36:46;;;;;;;13.33;2.77;;;;;;;;;;5023347;28;20191;-76
2023/01/02 08:39:12;;;;;;;9.37;2.73;;;;;;;;;;5023658;28;20174;-76
2023/01/02 08:41:39;;;;;;;12.93;2.63;;;;;;;;;;5022871;28;20278;-77
2023/01/02 08:44:06;;;;;;;7.93;2.27;;;;;;;;;;5024805;28;20201;-76
2023/01/02 08:46:33;;;;;;;9.60;2.40;;;;;;;;;;5025055;28;20178;-76
2023/01/02 08:48:59;;;;;;;11.23;2.90;;;;;;;;;;5022632;28;20333;-76
2023/01/02 08:51:26;;;;;;;10.33;2.90;;;;;;;;;;5021464;28;20198;-75
2023/01/02 08:53:53;;;;;;;8.47;2.47;;;;;;;;;;5024844;28;20193;-76
2023/01/02 08:56:23;;;;;;;8.13;2.60;;;;;;;;;;5024370;28;21639;-77
2023/01/02 08:58:54;;;;;;;6.67;2.60;;;;;;;;;;5023510;28;20182;-77
2023/01/02 09:01:20;;;;;;;10.80;2.50;;;;;;;;;;5024643;28;20285;-77
2023/01/02 09:03:46;;;;;;;5.90;2.60;;;;;;;;;;5008328;28;20238;-77
2023/01/02 09:06:13;;;;;;;14.77;3.00;;;;;;;;;;5006370;28;20195;-77
2023/01/02 09:08:39;;;;;;;8.60;2.40;;;;;;;;;;5027431;28;20210;-76
2023/01/02 09:11:13;;;;;;;9.80;2.70;;;;;;;;;;5023727;28;20206;-77
2023/01/02 09:13:39;;;;;;;8.93;2.57;;;;;;;;;;5020010;28;20558;-76
2023/01/02 09:16:06;;;;;;;6.50;2.50;;;;;;;;;;5022604;28;20198;-76
2023/01/02 09:18:32;;;;;;;7.87;2.50;;;;;;;;;;5019732;28;20170;-76
2023/01/02 09:20:58;;;;;;;6.33;2.37;;;;;;;;;;5024494;28;20202;-76
2023/01/02 09:23:24;;;;;;;7.53;2.77;;;;;;;;;;5021625;28;20194;-75
2023/01/02 09:25:50;;;;;;;11.50;2.70;;;;;;;;;;5023579;28;20288;-76
2023/01/02 09:28:17;;;;;;;8.33;2.60;;;;;;;;;;5024953;28;20232;-75
2023/01/02 09:30:43;;;;;;;11.40;4.67;;;;;;;;;;5021364;28;20289;-75
2023/01/02 09:33:09;;;;;;;9.07;3.37;;;;;;;;;;5018072;28;20249;-74
2023/01/02 09:35:36;;;;;;;11.53;3.47;;;;;;;;;;5023137;28;20701;-76
2023/01/02 09:38:02;;;;;;;10.23;2.80;;;;;;;;;;5024118;28;20206;-75
2023/01/02 09:40:28;;;;;;;8.73;2.97;;;;;;;;;;5020062;28;20744;-75
2023/01/02 09:42:54;;;;;;;10.13;3.00;;;;;;;;;;5036339;28;20187;-76
2023/01/02 09:45:26;;;;;;;8.73;3.10;;;;;;;;;;5025066;28;20201;-76
2023/01/02 09:47:53;;;;;;;7.43;3.00;;;;;;;;;;5025302;28;20175;-76
2023/01/02 09:50:24;;;;;;;6.33;2.90;;;;;;;;;;5029913;28;20578;-76
2023/01/02 09:52:54;;;;;;;7.93;2.97;;;;;;;;;;5026282;28;20577;-75
2023/01/02 09:55:30;;;;;;;9.03;2.87;;;;;;;;;;5026897;28;20195;-75
2023/01/02 09:58:13;;;;;;;6.73;3.07;;;;;;;;;;5030096;28;20178;-75
2023/01/02 10:00:40;;;;;;;6.47;2.93;;;;;;;;;;5026429;28;20198;-75
2023/01/02 10:03:25;;;;;;;9.80;2.90;;;;;;;;;;5011216;28;20575;-75
2023/01/02 10:06:01;;;;;;;8.93;3.10;;;;;;;;;;5025177;28;20179;-75
2023/01/02 10:08:30;;;;;;;9.20;3.20;;;;;;;;;;5026566;28;20193;-75
2023/01/02 10:10:56;;;;;;;8.80;3.07;;;;;;;;;;5023602;28;20210;-75
2023/01/02 10:13:42;;;;;;;6.90;2.50;;;;;;;;;;5015873;28;20222;-75
2023/01/02 10:16:11;;;;;;;9.03;3.10;;;;;;;;;;5018487;28;20187;-75
2023/01/02 10:18:43;;;;;;;9.77;3.00;;;;;;;;;;5027130;28;20167;-75
2023/01/02 10:21:14;;;;;;;10.80;3.20;;;;;;;;;;5024952;28;20698;-74
2023/01/02 10:23:51;;;;;;;12.27;2.97;;;;;;;;;;5025721;28;20198;-75
2023/01/02 10:26:18;;;;;;;9.47;2.93;;;;;;;;;;5021493;28;20289;-76
2023/01/02 10:28:57;;;;;;;8.97;3.00;;;;;;;;;;5021014;28;20820;-75
2023/01/02 10:31:29;;;;;;;7.47;2.67;;;;;;;;;;5021075;28;20693;-79
2023/01/02 10:33:57;;;;;;;9.13;3.10;;;;;;;;;;5018162;28;20194;-78
2023/01/02 10:36:34;;;;;;;9.60;2.93;;;;;;;;;;5022812;28;20218;-76
2023/01/02 10:39:02;;;;;;;7.20;2.70;;;;;;;;;;5027766;28;20185;-73
2023/01/02 10:41:28;;;;;;;8.33;3.07;;;;;;;;;;5028710;28;20293;-75
2023/01/02 10:44:02;;;;;;;10.17;2.90;;;;;;;;;;5027418;28;20169;-74
2023/01/02 10:46:32;;;;;;;7.77;2.77;;;;;;;;;;5025054;28;21934;-74
2023/01/02 10:48:59;;;;;;;9.40;3.20;;;;;;;;;;5024317;28;20270;-76
2023/01/02 10:51:25;;;;;;;9.07;3.10;;;;;;;;;;5029313;28;20344;-77
2023/01/02 10:54:01;;;;;;;8.93;2.77;;;;;;;;;;5027410;28;20217;-76
2023/01/02 10:56:30;;;;;;;8.73;2.87;;;;;;;;;;5024922;28;20321;-77
2023/01/02 10:58:57;;;;;;;9.87;2.70;;;;;;;;;;5021970;28;20183;-73
2023/01/02 11:01:23;;;;;;;9.97;2.80;;;;;;;;;;5023129;28;20210;-73
2023/01/02 11:04:09;;;;;;;11.93;3.07;;;;;;;;;;5004344;28;20195;-75
2023/01/02 11:06:39;;;;;;;7.87;2.70;;;;;;;;;;5024516;28;21129;-75
2023/01/02 11:09:18;;;;;;;7.63;2.87;;;;;;;;;;5025418;28;20750;-75
2023/01/02 11:11:52;;;;;;;6.50;2.67;;;;;;;;;;5027534;28;20202;-75
2023/01/02 11:14:21;;;;;;;9.13;3.13;;;;;;;;;;5025502;28;20754;-75
2023/01/02 11:16:47;;;;;;;8.90;3.10;;;;;;;;;;5024375;28;20205;-75
2023/01/02 11:19:17;;;;;;;11.97;3.10;;;;;;;;;;5027554;28;20182;-75
2023/01/02 11:21:45;;;;;;;8.63;3.03;;;;;;;;;;5026635;28;20202;-75
2023/01/02 11:24:15;;;;;;;10.70;3.20;;;;;;;;;;5024196;28;20762;-79
2023/01/02 11:26:42;;;;;;;6.93;2.63;;;;;;;;;;5025631;28;20182;-74
2023/01/02 11:29:12;;;;;;;9.10;2.80;;;;;;;;;;5023860;28;20178;-76
2023/01/02 11:31:44;;;;;;;6.03;2.40;;;;;;;;;;5023545;28;20448;-78
2023/01/02 11:34:17;;;;;;;4.67;2.27;;;;;;;;;;5027734;28;20194;-75
2023/01/02 11:36:43;;;;;;;7.77;2.43;;;;;;;;;;5025707;28;20208;-74
2023/01/02 11:39:23;;;;;;;6.17;2.50;;;;;;;;;;5020800;28;20654;-74
2023/01/02 11:44:52;;;;;;;5.00;2.23;;;;;;;;;;5037559;28;20183;-74
2023/01/02 11:47:20;;;;;;;4.70;2.47;;;;;;;;;;5023415;28;20191;-75
2023/01/02 11:49:47;;;;;;;5.87;2.70;;;;;;;;;;5021494;28;20166;-74
2023/01/02 11:52:21;;;;;;;5.73;2.07;;;;;;;;;;5025537;28;20218;-74
2023/01/02 11:55:05;;;;;;;5.03;2.20;;;;;;;;;;5020330;28;20181;-75
2023/01/02 11:57:51;;;;;;;7.00;2.50;;;;;;;;;;5017980;28;20542;-74
2023/01/02 12:00:18;;;;;;;9.23;2.67;;;;;;;;;;5019910;28;20174;-74
2023/01/02 12:02:45;;;;;;;8.77;2.50;;;;;;;;;;5024267;28;20209;-78
2023/01/02 12:05:13;;;;;;;7.87;2.43;;;;;;;;;;5020996;28;20942;-74
2023/01/02 12:07:47;;;;;;;6.73;2.57;;;;;;;;;;5018783;28;20321;-75
2023/01/02 12:10:31;;;;;;;7.67;2.57;;;;;;;;;;5020352;28;20201;-74
2023/01/02 12:13:07;;;;;;;7.60;2.57;;;;;;;;;;5023429;28;20210;-72
2023/01/02 12:15:39;;;;;;;7.93;2.30;;;;;;;;;;5021225;28;20224;-72
2023/01/02 12:18:24;;;;;;;6.40;2.37;;;;;;;;;;5017523;28;20179;-75
2023/01/02 12:20:53;;;;;;;3.90;2.20;;;;;;;;;;5030836;28;20214;-72
2023/01/02 12:23:35;;;;;;;8.57;2.40;;;;;;;;;;5019455;28;20744;-72
2023/01/02 12:26:05;;;;;;;6.40;2.40;;;;;;;;;;5022882;28;20205;-72
2023/01/02 12:28:43;;;;;;;6.17;2.37;;;;;;;;;;5019677;28;20190;-72
2023/01/02 12:31:18;;;;;;;4.27;2.37;;;;;;;;;;5027409;28;20269;-73
2023/01/02 12:33:51;;;;;;;6.40;2.43;;;;;;;;;;5021722;28;20285;-73
2023/01/02 12:36:37;;;;;;;7.70;2.73;;;;;;;;;;5018298;28;20270;-73
2023/01/02 12:39:22;;;;;;;9.83;2.47;;;;;;;;;;5021545;28;20233;-73
2023/01/02 12:41:57;;;;;;;8.10;2.87;;;;;;;;;;5021872;28;21039;-72
2023/01/02 12:44:26;;;;;;;5.00;2.53;;;;;;;;;;5019835;28;20186;-73
2023/01/02 12:47:11;;;;;;;7.53;2.30;;;;;;;;;;5023667;28;20256;-73
2023/01/02 12:49:54;;;;;;;5.17;2.23;;;;;;;;;;5022916;28;20197;-72
2023/01/02 12:52:30;;;;;;;4.93;2.43;;;;;;;;;;5023198;28;20783;-72
2023/01/02 12:55:02;;;;;;;6.70;2.73;;;;;;;;;;5019842;28;20178;-73
2023/01/02 12:57:48;;;;;;;6.73;3.10;;;;;;;;;;5017930;28;20177;-74
2023/01/02 13:00:32;;;;;;;5.77;2.17;;;;;;;;;;5018792;28;20185;-75
2023/01/02 13:03:17;;;;;;;6.90;3.50;;;;;;;;;;5023573;28;20193;-74
2023/01/02 13:05:47;;;;;;;13.50;6.03;;;;;;;;;;5018506;28;20689;-74
2023/01/02 13:08:16;;;;;;;7.53;3.80;;;;;;;;;;5018489;28;20274;-74
2023/01/02 13:10:42;;;;;;;5.57;3.00;;;;;;;;;;5024820;28;20204;-73
2023/01/02 13:13:10;;;;;;;10.90;4.00;;;;;;;;;;5024612;28;20202;-76
2023/01/02 13:15:40;;;;;;;15.20;6.50;;;;;;;;;;5002378;28;20252;-77
2023/01/02 13:18:10;;;;;;;9.53;4.50;;;;;;;;;;5019705;28;20191;-76
2023/01/02 13:20:56;;;;;;;7.27;3.60;;;;;;;;;;5022922;28;20203;-78
2023/01/02 13:23:38;;;;;;;7.37;3.33;;;;;;;;;;5030890;28;20198;-75
2023/01/02 13:26:09;;;;;;;8.27;4.27;;;;;;;;;;5011795;28;20183;-77
2023/01/02 13:28:42;;;;;;;14.67;6.17;;;;;;;;;;5019498;28;20190;-77
2023/01/02 13:31:10;;;;;;;16.40;7.17;;;;;;;;;;5020747;28;20704;-78
2023/01/02 13:33:41;;;;;;;7.70;4.83;;;;;;;;;;5024111;28;20275;-79
2023/01/02 13:36:27;;;;;;;7.70;3.97;;;;;;;;;;5035237;28;20713;-74
2023/01/02 13:39:01;;;;;;;7.87;3.60;;;;;;;;;;5021254;28;20227;-74
2023/01/02 13:41:29;;;;;;;29.53;15.97;;;;;;;;;;5019765;28;20229;-74
2023/01/02 13:43:59;;;;;;;16.97;7.67;;;;;;;;;;5022056;28;20239;-77
2023/01/02 13:46:30;;;;;;;11.83;6.63;;;;;;;;;;5020056;28;20654;-74
2023/01/02 13:48:58;;;;;;;14.57;7.47;;;;;;;;;;5024085;28;20211;-74
2023/01/02 13:51:35;;;;;;;8.90;4.87;;;;;;;;;;5020443;28;20213;-73
2023/01/02 13:54:08;;;;;;;9.77;4.00;;;;;;;;;;5017124;28;20554;-73
2023/01/02 13:56:55;;;;;;;10.03;4.23;;;;;;;;;;5018822;28;20610;-73
2023/01/02 13:59:21;;;;;;;11.13;4.50;;;;;;;;;;5017080;28;20254;-72
2023/01/02 14:01:59;;;;;;;12.60;5.73;;;;;;;;;;5015915;28;20214;-71
2023/01/02 14:04:27;;;;;;;29.47;16.30;;;;;;;;;;5016267;28;20270;-72
2023/01/02 14:06:53;;;;;;;21.53;12.53;;;;;;;;;;5014820;28;20182;-74
2023/01/02 14:09:20;;;;;;;25.00;13.07;;;;;;;;;;5016902;28;20221;-73
2023/01/02 14:11:46;;;;;;;81.57;42.03;;;;;;;;;;5017732;28;20198;-73
2023/01/02 14:14:21;;;;;;;32.27;18.37;;;;;;;;;;5015185;28;20694;-73
2023/01/02 14:16:57;;;;;;;31.80;17.23;;;;;;;;;;4999316;28;20191;-78
2023/01/02 14:19:24;;;;;;;27.80;15.17;;;;;;;;;;5014178;28;20201;-76
2023/01/02 14:21:50;;;;;;;15.00;8.10;;;;;;;;;;5008603;28;20206;-72
2023/01/02 14:24:22;;;;;;;9.50;4.20;;;;;;;;;;5010285;28;20273;-73
2023/01/02 14:26:53;;;;;;;11.93;4.20;;;;;;;;;;5013321;28;21147;-72
2023/01/02 14:29:20;;;;;;;9.37;3.33;;;;;;;;;;5014521;28;20187;-73
2023/01/02 14:31:47;;;;;;;10.80;3.43;;;;;;;;;;4996169;28;21158;-72
2023/01/02 14:34:21;;;;;;;9.40;3.40;;;;;;;;;;5019359;28;20198;-73
2023/01/02 14:36:49;;;;;;;10.13;4.07;;;;;;;;;;5019286;28;20680;-71
2023/01/02 14:39:22;;;;;;;6.67;3.27;;;;;;;;;;5015201;28;20225;-73
2023/01/02 14:44:57;;;;;;;7.73;3.20;;;;;;;;;;5023107;28;20180;-72
2023/01/02 14:47:43;;;;;;;7.07;3.10;;;;;;;;;;5022300;28;20187;-72
2023/01/02 14:50:12;;;;;;;5.93;2.83;;;;;;;;;;5019178;28;20215;-73
2023/01/02 14:52:40;;;;;;;8.27;3.50;;;;;;;;;;5032024;28;20210;-72
2023/01/02 14:55:14;;;;;;;6.47;3.10;;;;;;;;;;5014781;28;20941;-73
2023/01/02 14:57:43;;;;;;;6.47;2.90;;;;;;;;;;5012864;28;20182;-73
2023/01/02 15:00:30;;;;;;;11.93;5.27;;;;;;;;;;5017338;28;20713;-73
2023/01/02 15:03:17;;;;;;;17.63;7.50;;;;;;;;;;5019515;28;20642;-73
2023/01/02 15:05:48;;;;;;;9.87;3.60;;;;;;;;;;4993376;28;20762;-72